sensor_id;sensor_type;location;lat;lon;timestamp;temperature;humidity
33715;DHT22;20043;50.998;4.754;2023-05-18T00:02:06;10.90;99.90
33715;DHT22;20043;50.998;4.754;2023-05-18T00:04:33;10.80;99.90
33715;DHT22;20043;50.998;4.754;2023-05-18T00:07:00;10.80;99.90
33715;DHT22;20043;50.998;4.754;2023-05-18T00:09:38;10.80;99.90
33715;DHT22;20043;50.998;4.754;2023-05-18T00:12:05;10.80;99.90
33715;DHT22;20043;50.998;4.754;2023-05-18T00:14:31;10.80;99.90
33715;DHT22;20043;50.998;4.754;2023-05-18T00:16:57;10.70;99.90
33715;DHT22;20043;50.998;4.754;2023-05-18T00:19:23;10.70;99.90
33715;DHT22;20043;50.998;4.754;2023-05-18T00:21:50;10.60;99.90
33715;DHT22;20043;50.998;4.754;2023-05-18T00:24:17;10.60;99.90
33715;DHT22;20043;50.998;4.754;2023-05-18T00:26:45;10.70;99.90
33715;DHT22;20043;50.998;4.754;2023-05-18T00:29:11;10.70;99.90
33715;DHT22;20043;50.998;4.754;2023-05-18T00:31:37;10.60;99.90
33715;DHT22;20043;50.998;4.754;2023-05-18T00:34:07;10.60;99.90
33715;DHT22;20043;50.998;4.754;2023-05-18T00:36:40;10.50;99.90
33715;DHT22;20043;50.998;4.754;2023-05-18T00:39:06;10.40;99.90
33715;DHT22;20043;50.998;4.754;2023-05-18T00:41:33;10.40;99.90
33715;DHT22;20043;50.998;4.754;2023-05-18T00:43:59;10.50;99.90
33715;DHT22;20043;50.998;4.754;2023-05-18T00:46:26;10.50;99.90
33715;DHT22;20043;50.998;4.754;2023-05-18T00:48:54;10.50;99.90
33715;DHT22;20043;50.998;4.754;2023-05-18T00:51:22;10.40;99.90
33715;DHT22;20043;50.998;4.754;2023-05-18T00:53:53;10.40;99.90
33715;DHT22;20043;50.998;4.754;2023-05-18T00:56:20;10.30;99.90
33715;DHT22;20043;50.998;4.754;2023-05-18T00:58:50;10.30;99.90
33715;DHT22;20043;50.998;4.754;2023-05-18T01:01:17;10.20;99.90
33715;DHT22;20043;50.998;4.754;2023-05-18T01:03:43;10.10;99.90
33715;DHT22;20043;50.998;4.754;2023-05-18T01:06:09;10.20;99.90
33715;DHT22;20043;50.998;4.754;2023-05-18T01:08:37;10.20;99.90
33715;DHT22;20043;50.998;4.754;2023-05-18T01:16:55;10.10;99.90
33715;DHT22;20043;50.998;4.754;2023-05-18T01:19:49;10.10;99.90
33715;DHT22;20043;50.998;4.754;2023-05-18T01:27:59;10.00;99.90
33715;DHT22;20043;50.998;4.754;2023-05-18T01:30:32;10.00;99.90
33715;DHT22;20043;50.998;4.754;2023-05-18T01:32:58;10.00;99.90
33715;DHT22;20043;50.998;4.754;2023-05-18T01:35:24;9.90;99.90
33715;DHT22;20043;50.998;4.754;2023-05-18T01:37:49;9.70;99.90
33715;DHT22;20043;50.998;4.754;2023-05-18T01:40:15;9.80;99.90
33715;DHT22;20043;50.998;4.754;2023-05-18T01:42:50;9.80;99.90
33715;DHT22;20043;50.998;4.754;2023-05-18T01:45:21;9.80;99.90
33715;DHT22;20043;50.998;4.754;2023-05-18T01:47:52;9.80;99.90
33715;DHT22;20043;50.998;4.754;2023-05-18T01:50:28;9.70;99.90
33715;DHT22;20043;50.998;4.754;2023-05-18T01:53:01;9.70;99.90
33715;DHT22;20043;50.998;4.754;2023-05-18T01:55:29;9.90;99.90
33715;DHT22;20043;50.998;4.754;2023-05-18T01:57:56;9.60;99.90
33715;DHT22;20043;50.998;4.754;2023-05-18T02:00:23;9.60;99.90
33715;DHT22;20043;50.998;4.754;2023-05-18T02:02:48;9.30;99.90
33715;DHT22;20043;50.998;4.754;2023-05-18T02:05:14;9.40;99.90
33715;DHT22;20043;50.998;4.754;2023-05-18T02:07:40;9.50;99.90
33715;DHT22;20043;50.998;4.754;2023-05-18T02:10:08;9.30;99.90
33715;DHT22;20043;50.998;4.754;2023-05-18T02:12:34;9.40;99.90
33715;DHT22;20043;50.998;4.754;2023-05-18T02:15:00;9.30;99.90
33715;DHT22;20043;50.998;4.754;2023-05-18T02:17:33;9.30;99.90
33715;DHT22;20043;50.998;4.754;2023-05-18T02:20:00;9.40;99.90
33715;DHT22;20043;50.998;4.754;2023-05-18T02:22:25;9.50;99.90
33715;DHT22;20043;50.998;4.754;2023-05-18T02:24:51;9.50;99.90
33715;DHT22;20043;50.998;4.754;2023-05-18T02:27:18;9.50;99.90
33715;DHT22;20043;50.998;4.754;2023-05-18T02:29:43;9.40;99.90
33715;DHT22;20043;50.998;4.754;2023-05-18T02:32:09;9.50;99.90
33715;DHT22;20043;50.998;4.754;2023-05-18T02:34:34;9.50;99.90
33715;DHT22;20043;50.998;4.754;2023-05-18T02:37:03;9.20;99.90
33715;DHT22;20043;50.998;4.754;2023-05-18T02:39:29;9.30;99.90
33715;DHT22;20043;50.998;4.754;2023-05-18T02:41:55;9.10;99.90
33715;DHT22;20043;50.998;4.754;2023-05-18T02:44:20;9.20;99.90
33715;DHT22;20043;50.998;4.754;2023-05-18T02:46:46;8.90;99.90
33715;DHT22;20043;50.998;4.754;2023-05-18T02:49:11;8.90;99.90
33715;DHT22;20043;50.998;4.754;2023-05-18T02:51:37;8.90;99.90
33715;DHT22;20043;50.998;4.754;2023-05-18T02:54:03;8.90;99.90
33715;DHT22;20043;50.998;4.754;2023-05-18T02:56:28;8.90;99.90
33715;DHT22;20043;50.998;4.754;2023-05-18T02:58:54;9.00;99.90
33715;DHT22;20043;50.998;4.754;2023-05-18T03:01:22;9.10;99.90
33715;DHT22;20043;50.998;4.754;2023-05-18T03:03:54;8.90;99.90
33715;DHT22;20043;50.998;4.754;2023-05-18T03:06:22;8.50;99.90
33715;DHT22;20043;50.998;4.754;2023-05-18T03:08:51;8.60;99.90
33715;DHT22;20043;50.998;4.754;2023-05-18T03:11:22;8.60;99.90
33715;DHT22;20043;50.998;4.754;2023-05-18T03:13:48;8.50;99.90
33715;DHT22;20043;50.998;4.754;2023-05-18T03:16:14;8.50;99.90
33715;DHT22;20043;50.998;4.754;2023-05-18T03:18:40;8.70;99.90
33715;DHT22;20043;50.998;4.754;2023-05-18T03:21:06;8.80;99.90
33715;DHT22;20043;50.998;4.754;2023-05-18T03:23:32;8.90;99.90
33715;DHT22;20043;50.998;4.754;2023-05-18T03:25:58;9.00;99.90
33715;DHT22;20043;50.998;4.754;2023-05-18T03:28:27;9.00;99.90
33715;DHT22;20043;50.998;4.754;2023-05-18T03:30:53;9.10;99.90
33715;DHT22;20043;50.998;4.754;2023-05-18T03:33:19;9.20;99.90
33715;DHT22;20043;50.998;4.754;2023-05-18T03:35:45;9.10;99.90
33715;DHT22;20043;50.998;4.754;2023-05-18T03:38:10;9.00;99.90
33715;DHT22;20043;50.998;4.754;2023-05-18T03:40:36;9.00;99.90
33715;DHT22;20043;50.998;4.754;2023-05-18T03:43:02;9.00;99.90
33715;DHT22;20043;50.998;4.754;2023-05-18T03:45:27;8.90;99.90
33715;DHT22;20043;50.998;4.754;2023-05-18T03:47:53;8.90;99.90
33715;DHT22;20043;50.998;4.754;2023-05-18T03:50:18;8.90;99.90
33715;DHT22;20043;50.998;4.754;2023-05-18T03:52:44;8.90;99.90
33715;DHT22;20043;50.998;4.754;2023-05-18T03:55:10;8.90;99.90
33715;DHT22;20043;50.998;4.754;2023-05-18T03:57:36;9.00;99.90
33715;DHT22;20043;50.998;4.754;2023-05-18T04:00:04;9.10;99.90
33715;DHT22;20043;50.998;4.754;2023-05-18T04:02:34;9.00;99.90
33715;DHT22;20043;50.998;4.754;2023-05-18T04:05:00;9.00;99.90
33715;DHT22;20043;50.998;4.754;2023-05-18T04:07:26;9.00;99.90
33715;DHT22;20043;50.998;4.754;2023-05-18T04:09:53;9.00;99.90
33715;DHT22;20043;50.998;4.754;2023-05-18T04:12:19;9.00;99.90
33715;DHT22;20043;50.998;4.754;2023-05-18T04:14:45;9.00;99.90
33715;DHT22;20043;50.998;4.754;2023-05-18T04:17:17;9.10;99.90
33715;DHT22;20043;50.998;4.754;2023-05-18T04:19:42;9.10;99.90
33715;DHT22;20043;50.998;4.754;2023-05-18T04:22:08;9.10;99.90
33715;DHT22;20043;50.998;4.754;2023-05-18T04:24:34;9.00;99.90
33715;DHT22;20043;50.998;4.754;2023-05-18T04:27:00;9.00;99.90
33715;DHT22;20043;50.998;4.754;2023-05-18T04:29:27;8.90;99.90
33715;DHT22;20043;50.998;4.754;2023-05-18T04:31:56;8.90;99.90
33715;DHT22;20043;50.998;4.754;2023-05-18T04:34:26;8.90;99.90
33715;DHT22;20043;50.998;4.754;2023-05-18T04:36:51;9.00;99.90
33715;DHT22;20043;50.998;4.754;2023-05-18T04:39:21;8.90;99.90
33715;DHT22;20043;50.998;4.754;2023-05-18T04:41:50;9.00;99.90
33715;DHT22;20043;50.998;4.754;2023-05-18T04:44:31;8.90;99.90
33715;DHT22;20043;50.998;4.754;2023-05-18T04:47:01;8.90;99.90
33715;DHT22;20043;50.998;4.754;2023-05-18T04:49:27;9.10;99.90
33715;DHT22;20043;50.998;4.754;2023-05-18T04:51:54;9.40;99.90
33715;DHT22;20043;50.998;4.754;2023-05-18T04:54:28;9.70;99.90
33715;DHT22;20043;50.998;4.754;2023-05-18T04:56:57;9.90;99.90
33715;DHT22;20043;50.998;4.754;2023-05-18T04:59:24;10.10;99.90
33715;DHT22;20043;50.998;4.754;2023-05-18T05:01:53;10.30;99.90
33715;DHT22;20043;50.998;4.754;2023-05-18T05:04:22;10.30;99.90
33715;DHT22;20043;50.998;4.754;2023-05-18T05:06:48;10.30;99.90
33715;DHT22;20043;50.998;4.754;2023-05-18T05:09:14;10.30;99.90
33715;DHT22;20043;50.998;4.754;2023-05-18T05:11:42;10.10;99.90
33715;DHT22;20043;50.998;4.754;2023-05-18T05:14:08;9.90;99.90
33715;DHT22;20043;50.998;4.754;2023-05-18T05:16:34;10.10;99.90
33715;DHT22;20043;50.998;4.754;2023-05-18T05:19:00;10.20;99.90
33715;DHT22;20043;50.998;4.754;2023-05-18T05:21:27;10.30;99.90
33715;DHT22;20043;50.998;4.754;2023-05-18T05:23:53;10.30;99.90
33715;DHT22;20043;50.998;4.754;2023-05-18T05:26:19;10.30;99.90
33715;DHT22;20043;50.998;4.754;2023-05-18T05:28:45;10.50;99.90
33715;DHT22;20043;50.998;4.754;2023-05-18T05:31:11;10.60;99.90
33715;DHT22;20043;50.998;4.754;2023-05-18T05:33:37;10.70;99.90
33715;DHT22;20043;50.998;4.754;2023-05-18T05:36:03;10.70;99.90
33715;DHT22;20043;50.998;4.754;2023-05-18T05:38:30;10.80;99.90
33715;DHT22;20043;50.998;4.754;2023-05-18T05:40:56;10.80;99.90
33715;DHT22;20043;50.998;4.754;2023-05-18T05:43:22;11.00;99.90
33715;DHT22;20043;50.998;4.754;2023-05-18T05:45:48;10.80;99.90
33715;DHT22;20043;50.998;4.754;2023-05-18T05:48:13;10.90;99.90
33715;DHT22;20043;50.998;4.754;2023-05-18T05:50:39;10.70;99.90
33715;DHT22;20043;50.998;4.754;2023-05-18T05:53:05;10.40;99.90
33715;DHT22;20043;50.998;4.754;2023-05-18T05:55:30;10.00;99.90
33715;DHT22;20043;50.998;4.754;2023-05-18T05:57:56;9.80;99.90
33715;DHT22;20043;50.998;4.754;2023-05-18T06:00:21;9.40;99.90
33715;DHT22;20043;50.998;4.754;2023-05-18T06:02:48;9.70;99.90
33715;DHT22;20043;50.998;4.754;2023-05-18T06:05:14;10.00;99.90
33715;DHT22;20043;50.998;4.754;2023-05-18T06:07:40;10.10;99.90
33715;DHT22;20043;50.998;4.754;2023-05-18T06:10:06;10.30;99.90
33715;DHT22;20043;50.998;4.754;2023-05-18T06:12:32;10.20;99.90
33715;DHT22;20043;50.998;4.754;2023-05-18T06:14:58;10.10;99.90
33715;DHT22;20043;50.998;4.754;2023-05-18T06:17:25;10.20;99.90
33715;DHT22;20043;50.998;4.754;2023-05-18T06:19:52;10.30;99.90
33715;DHT22;20043;50.998;4.754;2023-05-18T06:22:17;10.40;99.90
33715;DHT22;20043;50.998;4.754;2023-05-18T06:24:43;10.40;99.90
33715;DHT22;20043;50.998;4.754;2023-05-18T06:27:09;10.10;99.90
33715;DHT22;20043;50.998;4.754;2023-05-18T06:29:34;10.50;99.90
33715;DHT22;20043;50.998;4.754;2023-05-18T06:32:00;10.40;99.90
33715;DHT22;20043;50.998;4.754;2023-05-18T06:34:26;10.70;99.90
33715;DHT22;20043;50.998;4.754;2023-05-18T06:36:51;10.90;99.90
33715;DHT22;20043;50.998;4.754;2023-05-18T06:39:17;11.10;99.90
33715;DHT22;20043;50.998;4.754;2023-05-18T06:41:43;11.10;99.90
33715;DHT22;20043;50.998;4.754;2023-05-18T06:44:11;10.90;99.90
33715;DHT22;20043;50.998;4.754;2023-05-18T06:46:37;10.70;99.90
33715;DHT22;20043;50.998;4.754;2023-05-18T06:49:03;10.70;99.90
33715;DHT22;20043;50.998;4.754;2023-05-18T06:51:29;10.80;99.90
33715;DHT22;20043;50.998;4.754;2023-05-18T06:53:55;10.90;99.90
33715;DHT22;20043;50.998;4.754;2023-05-18T06:56:21;11.10;99.90
33715;DHT22;20043;50.998;4.754;2023-05-18T06:58:47;11.20;99.90
33715;DHT22;20043;50.998;4.754;2023-05-18T07:01:13;11.30;99.90
33715;DHT22;20043;50.998;4.754;2023-05-18T07:03:39;11.40;99.90
33715;DHT22;20043;50.998;4.754;2023-05-18T07:06:05;11.60;99.90
33715;DHT22;20043;50.998;4.754;2023-05-18T07:08:31;11.90;99.90
33715;DHT22;20043;50.998;4.754;2023-05-18T07:10:57;12.10;99.90
33715;DHT22;20043;50.998;4.754;2023-05-18T07:13:23;12.20;99.90
33715;DHT22;20043;50.998;4.754;2023-05-18T07:15:49;11.80;99.90
33715;DHT22;20043;50.998;4.754;2023-05-18T07:18:15;11.60;99.90
33715;DHT22;20043;50.998;4.754;2023-05-18T07:20:41;12.00;99.90
33715;DHT22;20043;50.998;4.754;2023-05-18T07:23:07;12.10;99.90
33715;DHT22;20043;50.998;4.754;2023-05-18T07:25:32;12.10;99.90
33715;DHT22;20043;50.998;4.754;2023-05-18T07:27:58;12.50;99.90
33715;DHT22;20043;50.998;4.754;2023-05-18T07:30:24;12.50;99.90
33715;DHT22;20043;50.998;4.754;2023-05-18T07:32:51;12.50;99.90
33715;DHT22;20043;50.998;4.754;2023-05-18T07:35:17;12.80;99.90
33715;DHT22;20043;50.998;4.754;2023-05-18T07:37:46;13.10;99.90
33715;DHT22;20043;50.998;4.754;2023-05-18T07:40:12;13.30;99.90
33715;DHT22;20043;50.998;4.754;2023-05-18T07:42:45;13.50;99.90
33715;DHT22;20043;50.998;4.754;2023-05-18T07:45:11;13.70;99.90
33715;DHT22;20043;50.998;4.754;2023-05-18T07:47:37;14.00;99.90
33715;DHT22;20043;50.998;4.754;2023-05-18T07:50:03;14.30;99.90
33715;DHT22;20043;50.998;4.754;2023-05-18T07:52:29;14.60;99.90
33715;DHT22;20043;50.998;4.754;2023-05-18T07:54:55;14.90;99.90
33715;DHT22;20043;50.998;4.754;2023-05-18T07:57:22;15.00;99.90
33715;DHT22;20043;50.998;4.754;2023-05-18T07:59:47;15.10;99.90
33715;DHT22;20043;50.998;4.754;2023-05-18T08:02:13;15.20;99.90
33715;DHT22;20043;50.998;4.754;2023-05-18T08:04:40;15.30;99.90
33715;DHT22;20043;50.998;4.754;2023-05-18T08:07:06;15.40;99.90
33715;DHT22;20043;50.998;4.754;2023-05-18T08:09:33;15.10;99.90
33715;DHT22;20043;50.998;4.754;2023-05-18T08:11:59;14.80;99.90
33715;DHT22;20043;50.998;4.754;2023-05-18T08:14:24;14.80;99.90
33715;DHT22;20043;50.998;4.754;2023-05-18T08:16:50;15.00;99.90
33715;DHT22;20043;50.998;4.754;2023-05-18T08:19:16;15.30;99.90
33715;DHT22;20043;50.998;4.754;2023-05-18T08:21:41;15.40;99.90
33715;DHT22;20043;50.998;4.754;2023-05-18T08:24:08;15.50;99.90
33715;DHT22;20043;50.998;4.754;2023-05-18T08:26:34;15.30;99.90
33715;DHT22;20043;50.998;4.754;2023-05-18T08:29:00;15.40;99.90
33715;DHT22;20043;50.998;4.754;2023-05-18T08:31:25;15.70;99.90
33715;DHT22;20043;50.998;4.754;2023-05-18T08:33:51;15.90;99.90
33715;DHT22;20043;50.998;4.754;2023-05-18T08:36:17;15.70;99.90
33715;DHT22;20043;50.998;4.754;2023-05-18T08:38:42;15.50;99.90
33715;DHT22;20043;50.998;4.754;2023-05-18T08:44:17;15.90;99.90
33715;DHT22;20043;50.998;4.754;2023-05-18T08:46:45;15.80;99.90
33715;DHT22;20043;50.998;4.754;2023-05-18T08:49:19;15.70;99.90
33715;DHT22;20043;50.998;4.754;2023-05-18T08:51:47;15.40;99.90
33715;DHT22;20043;50.998;4.754;2023-05-18T08:54:20;15.40;99.90
33715;DHT22;20043;50.998;4.754;2023-05-18T08:56:46;15.40;99.90
33715;DHT22;20043;50.998;4.754;2023-05-18T08:59:14;15.60;99.90
33715;DHT22;20043;50.998;4.754;2023-05-18T09:01:40;15.60;99.90
33715;DHT22;20043;50.998;4.754;2023-05-18T09:04:08;15.70;99.90
33715;DHT22;20043;50.998;4.754;2023-05-18T09:06:34;15.50;99.90
33715;DHT22;20043;50.998;4.754;2023-05-18T09:09:01;15.40;99.90
33715;DHT22;20043;50.998;4.754;2023-05-18T09:11:32;15.70;99.90
33715;DHT22;20043;50.998;4.754;2023-05-18T09:13:58;15.90;99.90
33715;DHT22;20043;50.998;4.754;2023-05-18T09:16:25;16.10;99.90
33715;DHT22;20043;50.998;4.754;2023-05-18T09:18:51;16.20;99.90
33715;DHT22;20043;50.998;4.754;2023-05-18T09:21:17;16.50;99.90
33715;DHT22;20043;50.998;4.754;2023-05-18T09:23:43;16.70;99.90
33715;DHT22;20043;50.998;4.754;2023-05-18T09:26:09;16.60;99.90
33715;DHT22;20043;50.998;4.754;2023-05-18T09:28:36;16.40;99.90
33715;DHT22;20043;50.998;4.754;2023-05-18T09:31:03;16.70;99.90
33715;DHT22;20043;50.998;4.754;2023-05-18T09:33:35;17.10;99.90
33715;DHT22;20043;50.998;4.754;2023-05-18T09:36:06;17.20;99.90
33715;DHT22;20043;50.998;4.754;2023-05-18T09:38:40;17.30;99.90
33715;DHT22;20043;50.998;4.754;2023-05-18T09:41:10;17.50;99.90
33715;DHT22;20043;50.998;4.754;2023-05-18T09:43:37;17.50;99.90
33715;DHT22;20043;50.998;4.754;2023-05-18T09:46:06;17.20;99.90
33715;DHT22;20043;50.998;4.754;2023-05-18T09:48:34;16.90;99.90
33715;DHT22;20043;50.998;4.754;2023-05-18T09:51:01;16.80;99.90
33715;DHT22;20043;50.998;4.754;2023-05-18T09:53:27;16.80;99.90
33715;DHT22;20043;50.998;4.754;2023-05-18T09:55:52;16.70;99.90
33715;DHT22;20043;50.998;4.754;2023-05-18T09:58:18;16.70;99.90
33715;DHT22;20043;50.998;4.754;2023-05-18T10:00:47;17.00;99.90
33715;DHT22;20043;50.998;4.754;2023-05-18T10:03:20;17.30;99.90
33715;DHT22;20043;50.998;4.754;2023-05-18T10:05:46;17.10;99.90
33715;DHT22;20043;50.998;4.754;2023-05-18T10:08:13;17.00;99.90
33715;DHT22;20043;50.998;4.754;2023-05-18T10:10:47;16.70;99.90
33715;DHT22;20043;50.998;4.754;2023-05-18T10:13:15;17.00;99.90
33715;DHT22;20043;50.998;4.754;2023-05-18T10:15:47;17.00;99.90
33715;DHT22;20043;50.998;4.754;2023-05-18T10:18:20;17.20;99.90
33715;DHT22;20043;50.998;4.754;2023-05-18T10:20:47;17.20;99.90
33715;DHT22;20043;50.998;4.754;2023-05-18T10:23:13;16.60;99.90
33715;DHT22;20043;50.998;4.754;2023-05-18T10:25:41;16.80;99.90
33715;DHT22;20043;50.998;4.754;2023-05-18T10:28:09;17.20;99.90
33715;DHT22;20043;50.998;4.754;2023-05-18T10:30:36;17.10;99.90
33715;DHT22;20043;50.998;4.754;2023-05-18T10:33:05;17.00;99.90
33715;DHT22;20043;50.998;4.754;2023-05-18T10:35:32;16.80;99.90
33715;DHT22;20043;50.998;4.754;2023-05-18T10:37:58;16.80;99.90
33715;DHT22;20043;50.998;4.754;2023-05-18T10:40:27;16.70;99.90
33715;DHT22;20043;50.998;4.754;2023-05-18T10:42:56;16.70;99.90
33715;DHT22;20043;50.998;4.754;2023-05-18T10:45:22;17.00;99.90
33715;DHT22;20043;50.998;4.754;2023-05-18T10:47:49;17.30;99.90
33715;DHT22;20043;50.998;4.754;2023-05-18T10:50:20;17.00;99.90
33715;DHT22;20043;50.998;4.754;2023-05-18T10:52:47;17.00;99.90
33715;DHT22;20043;50.998;4.754;2023-05-18T10:55:14;17.40;99.90
33715;DHT22;20043;50.998;4.754;2023-05-18T10:57:49;17.60;99.90
33715;DHT22;20043;50.998;4.754;2023-05-18T11:00:16;17.70;99.90
33715;DHT22;20043;50.998;4.754;2023-05-18T11:02:42;18.00;99.90
33715;DHT22;20043;50.998;4.754;2023-05-18T11:05:09;18.10;99.90
33715;DHT22;20043;50.998;4.754;2023-05-18T11:07:35;18.20;99.90
33715;DHT22;20043;50.998;4.754;2023-05-18T11:10:06;18.20;99.90
33715;DHT22;20043;50.998;4.754;2023-05-18T11:12:32;18.40;99.90
33715;DHT22;20043;50.998;4.754;2023-05-18T11:15:00;18.50;99.90
33715;DHT22;20043;50.998;4.754;2023-05-18T11:17:29;18.70;99.90
33715;DHT22;20043;50.998;4.754;2023-05-18T11:27:51;19.20;99.90
33715;DHT22;20043;50.998;4.754;2023-05-18T11:33:37;18.90;99.90
33715;DHT22;20043;50.998;4.754;2023-05-18T11:36:11;18.10;99.90
33715;DHT22;20043;50.998;4.754;2023-05-18T11:39:02;18.30;99.90
33715;DHT22;20043;50.998;4.754;2023-05-18T11:41:35;18.30;99.90
33715;DHT22;20043;50.998;4.754;2023-05-18T11:44:27;18.30;99.90
33715;DHT22;20043;50.998;4.754;2023-05-18T11:47:04;18.50;99.90
33715;DHT22;20043;50.998;4.754;2023-05-18T11:49:31;18.30;99.90
33715;DHT22;20043;50.998;4.754;2023-05-18T11:52:00;18.20;99.90
33715;DHT22;20043;50.998;4.754;2023-05-18T11:54:27;18.40;99.90
33715;DHT22;20043;50.998;4.754;2023-05-18T11:56:53;18.60;99.90
33715;DHT22;20043;50.998;4.754;2023-05-18T11:59:36;18.60;99.90
33715;DHT22;20043;50.998;4.754;2023-05-18T12:02:02;18.20;99.90
33715;DHT22;20043;50.998;4.754;2023-05-18T12:04:29;18.00;99.90
33715;DHT22;20043;50.998;4.754;2023-05-18T12:06:57;17.70;99.90
33715;DHT22;20043;50.998;4.754;2023-05-18T12:09:24;18.00;99.90
33715;DHT22;20043;50.998;4.754;2023-05-18T12:11:50;18.40;99.90
33715;DHT22;20043;50.998;4.754;2023-05-18T12:14:19;18.60;99.90
33715;DHT22;20043;50.998;4.754;2023-05-18T12:16:46;18.80;99.90
33715;DHT22;20043;50.998;4.754;2023-05-18T12:19:12;18.90;99.80
33715;DHT22;20043;50.998;4.754;2023-05-18T12:21:38;19.00;99.90
33715;DHT22;20043;50.998;4.754;2023-05-18T12:24:04;18.90;99.70
33715;DHT22;20043;50.998;4.754;2023-05-18T12:26:30;18.70;99.30
33715;DHT22;20043;50.998;4.754;2023-05-18T12:28:59;18.90;99.00
33715;DHT22;20043;50.998;4.754;2023-05-18T12:31:26;18.90;99.60
33715;DHT22;20043;50.998;4.754;2023-05-18T12:33:55;18.40;99.40
33715;DHT22;20043;50.998;4.754;2023-05-18T12:36:21;18.00;99.90
33715;DHT22;20043;50.998;4.754;2023-05-18T12:38:48;17.90;99.90
33715;DHT22;20043;50.998;4.754;2023-05-18T12:41:24;18.10;99.90
33715;DHT22;20043;50.998;4.754;2023-05-18T12:43:54;18.10;97.90
33715;DHT22;20043;50.998;4.754;2023-05-18T12:46:21;18.00;98.60
33715;DHT22;20043;50.998;4.754;2023-05-18T12:48:56;17.60;99.90
33715;DHT22;20043;50.998;4.754;2023-05-18T12:51:23;17.90;99.90
33715;DHT22;20043;50.998;4.754;2023-05-18T12:53:49;17.70;99.90
33715;DHT22;20043;50.998;4.754;2023-05-18T12:56:15;17.60;99.90
33715;DHT22;20043;50.998;4.754;2023-05-18T12:58:57;17.70;99.90
33715;DHT22;20043;50.998;4.754;2023-05-18T13:01:23;17.80;99.90
33715;DHT22;20043;50.998;4.754;2023-05-18T13:03:57;18.00;99.90
33715;DHT22;20043;50.998;4.754;2023-05-18T13:06:23;18.10;99.90
33715;DHT22;20043;50.998;4.754;2023-05-18T13:08:53;18.00;99.90
33715;DHT22;20043;50.998;4.754;2023-05-18T13:11:24;18.00;99.90
33715;DHT22;20043;50.998;4.754;2023-05-18T13:14:00;18.20;99.90
33715;DHT22;20043;50.998;4.754;2023-05-18T13:16:26;18.60;99.90
33715;DHT22;20043;50.998;4.754;2023-05-18T13:18:58;18.50;99.90
33715;DHT22;20043;50.998;4.754;2023-05-18T13:21:24;17.90;99.30
33715;DHT22;20043;50.998;4.754;2023-05-18T13:23:50;17.60;99.40
33715;DHT22;20043;50.998;4.754;2023-05-18T13:26:16;17.50;99.90
33715;DHT22;20043;50.998;4.754;2023-05-18T13:28:45;17.70;99.90
33715;DHT22;20043;50.998;4.754;2023-05-18T13:31:10;17.90;99.90
33715;DHT22;20043;50.998;4.754;2023-05-18T13:33:36;18.00;99.90
33715;DHT22;20043;50.998;4.754;2023-05-18T13:36:02;18.10;99.40
33715;DHT22;20043;50.998;4.754;2023-05-18T13:38:28;18.10;99.10
33715;DHT22;20043;50.998;4.754;2023-05-18T13:40:54;17.90;99.90
33715;DHT22;20043;50.998;4.754;2023-05-18T13:43:20;18.00;99.90
33715;DHT22;20043;50.998;4.754;2023-05-18T13:45:46;17.90;99.00
33715;DHT22;20043;50.998;4.754;2023-05-18T13:48:11;17.90;99.70
33715;DHT22;20043;50.998;4.754;2023-05-18T13:50:38;18.00;99.90
33715;DHT22;20043;50.998;4.754;2023-05-18T13:53:04;18.10;99.90
33715;DHT22;20043;50.998;4.754;2023-05-18T13:55:30;18.20;99.90
33715;DHT22;20043;50.998;4.754;2023-05-18T13:57:57;18.60;99.90
33715;DHT22;20043;50.998;4.754;2023-05-18T14:00:23;18.50;98.80
33715;DHT22;20043;50.998;4.754;2023-05-18T14:02:48;18.40;99.90
33715;DHT22;20043;50.998;4.754;2023-05-18T14:05:14;18.60;99.30
33715;DHT22;20043;50.998;4.754;2023-05-18T14:07:41;19.00;99.10
33715;DHT22;20043;50.998;4.754;2023-05-18T14:10:08;19.00;97.90
33715;DHT22;20043;50.998;4.754;2023-05-18T14:12:34;19.10;99.10
33715;DHT22;20043;50.998;4.754;2023-05-18T14:15:00;19.00;99.00
33715;DHT22;20043;50.998;4.754;2023-05-18T14:17:26;19.00;98.00
33715;DHT22;20043;50.998;4.754;2023-05-18T14:19:54;19.30;99.50
33715;DHT22;20043;50.998;4.754;2023-05-18T14:22:20;19.40;98.00
33715;DHT22;20043;50.998;4.754;2023-05-18T14:24:47;19.60;97.10
33715;DHT22;20043;50.998;4.754;2023-05-18T14:27:12;19.50;98.50
33715;DHT22;20043;50.998;4.754;2023-05-18T14:29:38;19.00;99.20
33715;DHT22;20043;50.998;4.754;2023-05-18T14:32:04;19.20;98.90
33715;DHT22;20043;50.998;4.754;2023-05-18T14:34:30;19.10;97.50
33715;DHT22;20043;50.998;4.754;2023-05-18T14:36:55;19.00;96.90
33715;DHT22;20043;50.998;4.754;2023-05-18T14:39:21;19.10;96.30
33715;DHT22;20043;50.998;4.754;2023-05-18T14:41:47;19.40;98.30
33715;DHT22;20043;50.998;4.754;2023-05-18T14:44:12;19.00;96.40
33715;DHT22;20043;50.998;4.754;2023-05-18T14:46:38;18.90;97.70
33715;DHT22;20043;50.998;4.754;2023-05-18T14:49:05;18.90;98.60
33715;DHT22;20043;50.998;4.754;2023-05-18T14:51:31;19.00;98.20
33715;DHT22;20043;50.998;4.754;2023-05-18T14:53:57;19.30;96.80
33715;DHT22;20043;50.998;4.754;2023-05-18T14:56:22;19.50;99.60
33715;DHT22;20043;50.998;4.754;2023-05-18T14:58:48;19.30;96.90
33715;DHT22;20043;50.998;4.754;2023-05-18T15:01:14;19.00;98.50
33715;DHT22;20043;50.998;4.754;2023-05-18T15:03:39;18.90;97.60
33715;DHT22;20043;50.998;4.754;2023-05-18T15:06:05;18.90;97.20
33715;DHT22;20043;50.998;4.754;2023-05-18T15:08:31;19.10;99.60
33715;DHT22;20043;50.998;4.754;2023-05-18T15:10:56;19.30;97.40
33715;DHT22;20043;50.998;4.754;2023-05-18T15:13:22;19.30;99.20
33715;DHT22;20043;50.998;4.754;2023-05-18T15:15:48;19.50;97.50
33715;DHT22;20043;50.998;4.754;2023-05-18T15:18:13;19.50;99.90
33715;DHT22;20043;50.998;4.754;2023-05-18T15:20:39;19.40;97.50
33715;DHT22;20043;50.998;4.754;2023-05-18T15:23:08;19.40;99.10
33715;DHT22;20043;50.998;4.754;2023-05-18T15:25:34;19.50;98.10
33715;DHT22;20043;50.998;4.754;2023-05-18T15:28:00;19.20;97.30
33715;DHT22;20043;50.998;4.754;2023-05-18T15:30:26;19.00;98.00
33715;DHT22;20043;50.998;4.754;2023-05-18T15:32:54;18.80;99.30
33715;DHT22;20043;50.998;4.754;2023-05-18T15:35:20;18.70;98.40
33715;DHT22;20043;50.998;4.754;2023-05-18T15:37:46;18.90;99.60
33715;DHT22;20043;50.998;4.754;2023-05-18T15:40:12;19.20;99.50
33715;DHT22;20043;50.998;4.754;2023-05-18T15:42:38;18.80;98.80
33715;DHT22;20043;50.998;4.754;2023-05-18T15:45:04;18.90;99.40
33715;DHT22;20043;50.998;4.754;2023-05-18T15:47:29;19.00;98.90
33715;DHT22;20043;50.998;4.754;2023-05-18T15:49:55;18.90;98.20
33715;DHT22;20043;50.998;4.754;2023-05-18T15:52:21;18.90;97.10
33715;DHT22;20043;50.998;4.754;2023-05-18T15:54:46;18.90;98.00
33715;DHT22;20043;50.998;4.754;2023-05-18T15:57:12;18.90;99.70
33715;DHT22;20043;50.998;4.754;2023-05-18T15:59:37;19.00;98.70
33715;DHT22;20043;50.998;4.754;2023-05-18T16:02:03;19.20;98.90